createdAt,value
2023-04-02T00:00:00.687Z,100579.50
2023-04-02T00:02:27.246Z,100575.56
2023-04-02T00:04:53.785Z,100577.41
2023-04-02T00:07:20.167Z,100585.59
2023-04-02T00:09:46.553Z,100581.34
2023-04-02T00:12:12.926Z,100577.09
2023-04-02T00:14:39.611Z,100588.31
2023-04-02T00:17:05.949Z,100582.56
2023-04-02T00:19:32.347Z,100588.88
2023-04-02T00:21:58.779Z,100594.81
2023-04-02T00:24:25.117Z,100592.09
2023-04-02T00:26:51.454Z,100589.50
2023-04-02T00:29:17.778Z,100590.88
2023-04-02T00:31:44.229Z,100598.91
2023-04-02T00:34:10.573Z,100600.75
2023-04-02T00:36:36.944Z,100599.97
2023-04-02T00:39:03.538Z,100604.34
2023-04-02T00:41:29.892Z,100597.81
2023-04-02T00:43:56.285Z,100600.88
2023-04-02T00:46:22.660Z,100595.09
2023-04-02T00:48:49.024Z,100601.63
2023-04-02T00:51:15.420Z,100611.00
2023-04-02T00:53:41.801Z,100607.22
2023-04-02T00:56:08.311Z,100608.06
2023-04-02T00:58:34.696Z,100606.13
2023-04-02T01:01:01.104Z,100611.91
2023-04-02T01:03:27.616Z,100614.03
2023-04-02T01:05:54.128Z,100618.28
2023-04-02T01:08:20.466Z,100616.47
2023-04-02T01:10:47.002Z,100623.88
2023-04-02T01:13:13.458Z,100625.81
2023-04-02T01:15:40.078Z,100618.13
2023-04-02T01:18:06.517Z,100629.63
2023-04-02T01:20:32.984Z,100629.75
2023-04-02T01:22:59.424Z,100634.34
2023-04-02T01:25:25.784Z,100632.03
2023-04-02T01:27:52.164Z,100636.56
2023-04-02T01:30:18.560Z,100633.38
2023-04-02T01:32:45.066Z,100628.56
2023-04-02T01:35:11.587Z,100641.41
2023-04-02T01:37:37.975Z,100653.09
2023-04-02T01:40:04.282Z,100643.06
2023-04-02T01:42:30.667Z,100642.50
2023-04-02T01:44:56.997Z,100648.81
2023-04-02T01:47:23.323Z,100646.09
2023-04-02T01:49:49.653Z,100653.97
2023-04-02T01:52:16.038Z,100656.69
2023-04-02T01:54:42.379Z,100655.94
2023-04-02T01:57:08.763Z,100646.56
2023-04-02T01:59:35.151Z,100648.81
2023-04-02T02:02:01.605Z,100652.66
2023-04-02T02:04:27.982Z,100654.28
2023-04-02T02:06:54.356Z,100648.09
2023-04-02T02:09:20.693Z,100649.72
2023-04-02T02:11:47.124Z,100656.78
2023-04-02T02:14:13.459Z,100657.13
2023-04-02T02:16:39.881Z,100661.84
2023-04-02T02:19:06.256Z,100662.44
2023-04-02T02:21:32.585Z,100668.88
2023-04-02T02:23:58.994Z,100666.16
2023-04-02T02:26:25.375Z,100673.34
2023-04-02T02:28:51.795Z,100685.91
2023-04-02T02:31:18.186Z,100682.88
2023-04-02T02:33:44.593Z,100682.41
2023-04-02T02:36:11.029Z,100686.38
2023-04-02T02:38:37.385Z,100692.13
2023-04-02T02:41:03.744Z,100694.72
2023-04-02T02:43:30.178Z,100697.56
2023-04-02T02:45:56.595Z,100693.19
2023-04-02T02:48:23.005Z,100692.31
2023-04-02T02:50:49.337Z,100703.47
2023-04-02T02:53:15.705Z,100705.75
2023-04-02T02:55:42.074Z,100701.59
2023-04-02T02:58:08.426Z,100717.53
2023-04-02T03:00:34.745Z,100712.41
2023-04-02T03:03:01.244Z,100712.50
2023-04-02T03:05:27.716Z,100717.75
2023-04-02T03:07:54.076Z,100716.44
2023-04-02T03:10:20.396Z,100719.81
2023-04-02T03:12:46.769Z,100715.66
2023-04-02T03:15:13.089Z,100715.47
2023-04-02T03:17:39.409Z,100723.75
2023-04-02T03:20:05.945Z,100728.06
2023-04-02T03:22:32.286Z,100725.34
2023-04-02T03:24:58.669Z,100738.16
2023-04-02T03:27:24.992Z,100739.97
2023-04-02T03:29:51.368Z,100750.88
2023-04-02T03:32:17.680Z,100745.97
2023-04-02T03:34:44.025Z,100744.34
2023-04-02T03:37:10.380Z,100753.91
2023-04-02T03:39:36.912Z,100755.22
2023-04-02T03:42:03.396Z,100760.69
2023-04-02T03:44:29.770Z,100764.94
2023-04-02T03:46:56.089Z,100764.06
2023-04-02T03:49:22.410Z,100760.25
2023-04-02T03:51:48.716Z,100769.19
2023-04-02T03:54:15.058Z,100765.78
2023-04-02T03:56:41.392Z,100770.84
2023-04-02T03:59:07.730Z,100770.94
2023-04-02T04:01:34.127Z,100775.41
2023-04-02T04:04:00.569Z,100768.53
2023-04-02T04:06:26.933Z,100780.97
2023-04-02T04:08:53.382Z,100787.59
2023-04-02T04:11:19.755Z,100787.72
2023-04-02T04:13:46.145Z,100788.59
2023-04-02T04:16:12.571Z,100790.75
2023-04-02T04:18:38.999Z,100795.47
2023-04-02T04:21:05.315Z,100795.88
2023-04-02T04:23:31.643Z,100797.34
2023-04-02T04:25:58.028Z,100802.09
2023-04-02T04:28:24.486Z,100806.78
2023-04-02T04:30:51.008Z,100803.63
2023-04-02T04:33:17.547Z,100812.47
2023-04-02T04:35:44.054Z,100805.91
2023-04-02T04:38:10.647Z,100810.19
2023-04-02T04:40:36.996Z,100823.03
2023-04-02T04:43:03.365Z,100821.09
2023-04-02T04:45:29.708Z,100825.56
2023-04-02T04:47:56.064Z,100811.03
2023-04-02T04:50:22.419Z,100829.34
2023-04-02T04:52:48.959Z,100831.44
2023-04-02T04:55:15.924Z,100832.09
2023-04-02T04:57:42.339Z,100841.03
2023-04-02T05:00:08.645Z,100840.69
2023-04-02T05:02:35.042Z,100839.59
2023-04-02T05:05:01.493Z,100843.84
2023-04-02T05:07:27.907Z,100854.53
2023-04-02T05:09:54.228Z,100849.44
2023-04-02T05:12:20.630Z,100853.03
2023-04-02T05:14:47.017Z,100865.00
2023-04-02T05:17:13.333Z,100866.53
2023-04-02T05:19:39.639Z,100873.84
2023-04-02T05:22:05.947Z,100876.56
2023-04-02T05:24:32.268Z,100875.78
2023-04-02T05:26:58.591Z,100880.16
2023-04-02T05:29:24.907Z,100880.59
2023-04-02T05:31:51.222Z,100890.06
2023-04-02T05:34:17.612Z,100888.00
2023-04-02T05:36:44.211Z,100896.72
2023-04-02T05:39:10.782Z,100903.34
2023-04-02T05:41:37.104Z,100898.47
2023-04-02T05:44:03.493Z,100914.06
2023-04-02T05:46:29.916Z,100920.59
2023-04-02T05:48:56.323Z,100914.47
2023-04-02T05:51:22.691Z,100926.34
2023-04-02T05:53:49.056Z,100924.94
2023-04-02T05:56:15.414Z,100929.63
2023-04-02T05:58:43.917Z,100926.59
2023-04-02T06:01:11.825Z,100949.03
2023-04-02T06:03:38.209Z,100935.97
2023-04-02T06:06:04.809Z,100933.22
2023-04-02T06:08:31.204Z,100926.81
2023-04-02T06:10:57.562Z,100939.00
2023-04-02T06:13:23.905Z,100945.22
2023-04-02T06:15:50.296Z,100947.72
2023-04-02T06:18:16.623Z,100946.09
2023-04-02T06:20:42.971Z,100954.47
2023-04-02T06:23:09.286Z,100953.16
2023-04-02T06:25:35.771Z,100949.03
2023-04-02T06:28:02.220Z,100961.81
2023-04-02T06:30:28.719Z,100967.34
2023-04-02T06:32:56.437Z,100963.75
2023-04-02T06:35:22.865Z,100970.50
2023-04-02T06:37:49.418Z,100980.41
2023-04-02T06:40:15.759Z,100970.19
2023-04-02T06:42:42.121Z,100971.69
2023-04-02T06:45:08.485Z,100978.69
2023-04-02T06:47:34.855Z,100980.97
2023-04-02T06:50:01.413Z,100981.09
2023-04-02T06:52:27.735Z,100981.81
2023-04-02T06:54:54.126Z,100989.69
2023-04-02T06:57:20.608Z,100988.38
2023-04-02T06:59:46.996Z,100993.50
2023-04-02T07:02:13.440Z,100993.69
2023-04-02T07:04:39.830Z,100995.03
2023-04-02T07:07:06.187Z,100999.72
2023-04-02T07:09:32.557Z,100998.41
2023-04-02T07:11:58.941Z,101003.88
2023-04-02T07:14:25.329Z,101007.25
2023-04-02T07:16:51.670Z,101020.97
2023-04-02T07:19:17.993Z,101019.56
2023-04-02T07:21:44.307Z,101027.19
2023-04-02T07:24:10.819Z,101030.06
2023-04-02T07:26:37.147Z,101035.50
2023-04-02T07:29:03.535Z,101044.19
2023-04-02T07:31:29.933Z,101052.34
2023-04-02T07:33:56.318Z,101051.53
2023-04-02T07:36:22.782Z,101049.91
2023-04-02T07:38:49.190Z,101062.44
2023-04-02T07:41:15.499Z,101062.06
2023-04-02T07:43:41.918Z,101064.72
2023-04-02T07:46:08.343Z,101066.25
2023-04-02T07:48:34.701Z,101067.78
2023-04-02T07:51:01.032Z,101080.31
2023-04-02T07:53:27.416Z,101074.75
2023-04-02T07:55:53.816Z,101087.38
2023-04-02T07:58:20.156Z,101081.59
2023-04-02T08:00:46.472Z,101094.56
2023-04-02T08:03:12.943Z,101083.97
2023-04-02T08:05:39.382Z,101093.63
2023-04-02T08:08:05.699Z,101094.69
2023-04-02T08:10:32.025Z,101090.97
2023-04-02T08:12:58.414Z,101096.84
2023-04-02T08:15:24.764Z,101099.22
2023-04-02T08:17:51.164Z,101103.50
2023-04-02T08:20:17.585Z,101105.00
2023-04-02T08:22:43.993Z,101104.69
2023-04-02T08:25:10.489Z,101106.97
2023-04-02T08:27:36.819Z,101111.00
2023-04-02T08:30:03.224Z,101113.38
2023-04-02T08:32:29.629Z,101116.44
2023-04-02T08:34:55.985Z,101122.13
2023-04-02T08:37:22.461Z,101121.56
2023-04-02T08:39:48.794Z,101133.47
2023-04-02T08:42:15.118Z,101132.81
2023-04-02T08:44:41.442Z,101132.81
2023-04-02T08:47:07.755Z,101135.19
2023-04-02T08:49:34.102Z,101141.75
2023-04-02T08:52:00.422Z,101143.81
2023-04-02T08:54:27.816Z,101148.97
2023-04-02T08:56:54.430Z,101146.16
2023-04-02T08:59:20.912Z,101152.09
2023-04-02T09:01:47.257Z,101168.34
2023-04-02T09:04:13.694Z,101165.31
2023-04-02T09:06:40.055Z,101169.72
2023-04-02T09:09:06.439Z,101178.94
2023-04-02T09:11:32.784Z,101176.22
2023-04-02T09:13:59.103Z,101190.34
2023-04-02T09:16:25.516Z,101196.97
2023-04-02T09:18:51.936Z,101194.34
2023-04-02T09:21:18.306Z,101188.81
2023-04-02T09:23:44.701Z,101196.88
2023-04-02T09:26:11.050Z,101207.47
2023-04-02T09:28:37.375Z,101209.88
2023-04-02T09:31:05.506Z,101213.00
2023-04-02T09:33:33.142Z,101207.66
2023-04-02T09:35:59.503Z,101213.34
2023-04-02T09:38:25.821Z,101205.25
2023-04-02T09:40:52.362Z,101214.09
2023-04-02T09:43:19.082Z,101220.84
2023-04-02T09:45:45.409Z,101217.50
2023-04-02T09:48:11.824Z,101228.50
2023-04-02T09:50:38.296Z,101233.44
2023-04-02T09:53:04.833Z,101233.75
2023-04-02T09:55:31.228Z,101231.56
2023-04-02T09:57:58.012Z,101232.00
2023-04-02T10:00:32.154Z,101236.94
2023-04-02T10:02:58.983Z,101240.16
2023-04-02T10:05:39.306Z,101237.84
2023-04-02T10:08:06.742Z,101247.47
2023-04-02T10:10:33.494Z,101258.81
2023-04-02T10:12:59.996Z,101259.25
2023-04-02T10:15:26.386Z,101267.75
2023-04-02T10:17:52.888Z,101266.06
2023-04-02T10:20:19.391Z,101268.50
2023-04-02T10:22:45.746Z,101277.13
2023-04-02T10:25:12.126Z,101279.09
2023-04-02T10:27:38.499Z,101278.72
2023-04-02T10:30:04.859Z,101281.47
2023-04-02T10:32:31.282Z,101281.13
2023-04-02T10:34:57.710Z,101286.91
2023-04-02T10:37:24.239Z,101291.63
2023-04-02T10:39:50.555Z,101286.16
2023-04-02T10:42:16.917Z,101299.34
2023-04-02T10:44:43.316Z,101305.16
2023-04-02T10:47:09.703Z,101313.22
2023-04-02T10:49:36.148Z,101308.88
2023-04-02T10:52:02.745Z,101315.38
2023-04-02T10:54:29.055Z,101311.78
2023-04-02T10:56:55.375Z,101312.19
2023-04-02T10:59:21.846Z,101311.53
2023-04-02T11:01:48.204Z,101325.50
2023-04-02T11:04:14.622Z,101323.88
2023-04-02T11:06:41.002Z,101313.75
2023-04-02T11:09:07.410Z,101323.53
2023-04-02T11:11:33.789Z,101319.53
2023-04-02T11:14:00.211Z,101325.06
2023-04-02T11:16:26.624Z,101326.19
2023-04-02T11:18:52.969Z,101324.66
2023-04-02T11:21:19.285Z,101329.69
2023-04-02T11:23:45.613Z,101333.22
2023-04-02T11:26:11.990Z,101333.69
2023-04-02T11:28:38.381Z,101336.72
2023-04-02T11:31:04.790Z,101339.97
2023-04-02T11:33:38.139Z,101335.31
2023-04-02T11:36:06.460Z,101337.59
2023-04-02T11:38:32.922Z,101337.84
2023-04-02T11:40:59.285Z,101345.34
2023-04-02T11:43:25.704Z,101349.75
2023-04-02T11:45:53.473Z,101363.22
2023-04-02T11:48:20.040Z,101356.25
2023-04-02T11:50:46.817Z,101358.53
2023-04-02T11:53:13.358Z,101361.00
2023-04-02T11:55:39.959Z,101358.88
2023-04-02T11:58:06.495Z,101370.03
2023-04-02T12:00:32.855Z,101365.78
2023-04-02T12:02:59.246Z,101374.34
2023-04-02T12:05:25.715Z,101379.31
2023-04-02T12:07:52.317Z,101381.19
2023-04-02T12:10:19.113Z,101375.81
2023-04-02T12:12:45.461Z,101380.59
2023-04-02T12:15:11.919Z,101387.50
2023-04-02T12:17:38.431Z,101383.22
2023-04-02T12:20:05.949Z,101389.81
2023-04-02T12:22:32.435Z,101398.72
2023-04-02T12:24:58.761Z,101389.38
2023-04-02T12:27:25.160Z,101397.69
2023-04-02T12:29:51.497Z,101403.91
2023-04-02T12:32:17.857Z,101405.28
2023-04-02T12:34:44.485Z,101402.75
2023-04-02T12:37:10.867Z,101409.38
2023-04-02T12:39:37.212Z,101414.75
2023-04-02T12:42:03.551Z,101413.56
2023-04-02T12:44:30.019Z,101410.63
2023-04-02T12:46:56.375Z,101407.06
2023-04-02T12:49:22.750Z,101405.47
2023-04-02T12:51:49.331Z,101417.47
2023-04-02T12:54:15.735Z,101413.03
2023-04-02T12:56:42.075Z,101418.97
2023-04-02T12:59:08.452Z,101414.91
2023-04-02T13:01:34.894Z,101419.94
2023-04-02T13:04:01.345Z,101422.75
2023-04-02T13:06:27.751Z,101427.25
2023-04-02T13:08:54.322Z,101422.66
2023-04-02T13:11:20.691Z,101434.31
2023-04-02T13:13:47.123Z,101429.28
2023-04-02T13:16:13.609Z,101437.81
2023-04-02T13:18:40.064Z,101435.06
2023-04-02T13:21:06.470Z,101435.59
2023-04-02T13:23:32.847Z,101429.00
2023-04-02T13:25:59.199Z,101437.81
2023-04-02T13:28:25.661Z,101433.41
2023-04-02T13:30:51.977Z,101435.06
2023-04-02T13:33:18.384Z,101443.25
2023-04-02T13:35:44.785Z,101438.25
2023-04-02T13:38:11.145Z,101440.53
2023-04-02T13:40:37.879Z,101444.47
2023-04-02T13:43:04.546Z,101440.53
2023-04-02T13:45:30.913Z,101447.50
2023-04-02T13:47:57.325Z,101447.59
2023-04-02T13:50:23.865Z,101451.25
2023-04-02T13:52:50.247Z,101447.66
2023-04-02T13:55:16.633Z,101455.34
2023-04-02T13:57:43.001Z,101463.59
2023-04-02T14:00:09.372Z,101469.06
2023-04-02T14:02:35.849Z,101466.75
2023-04-02T14:05:02.273Z,101466.91
2023-04-02T14:07:28.597Z,101470.94
2023-04-02T14:09:55.032Z,101470.50
2023-04-02T14:12:21.678Z,101482.16
2023-04-02T14:14:48.073Z,101485.66
2023-04-02T14:17:14.445Z,101493.06
2023-04-02T14:19:40.911Z,101489.66
2023-04-02T14:22:07.291Z,101491.25
2023-04-02T14:24:33.710Z,101485.03
2023-04-02T14:27:00.107Z,101487.00
2023-04-02T14:29:28.212Z,101491.88
2023-04-02T14:31:55.682Z,101484.56
2023-04-02T14:34:22.169Z,101485.81
2023-04-02T14:36:48.543Z,101475.25
2023-04-02T14:39:14.941Z,101484.03
2023-04-02T14:41:41.265Z,101495.72
2023-04-02T14:44:07.645Z,101502.41
2023-04-02T14:46:36.826Z,101502.56
2023-04-02T14:49:03.742Z,101510.00
2023-04-02T14:51:30.127Z,101515.38
2023-04-02T14:53:56.522Z,101515.00
2023-04-02T14:56:23.056Z,101517.41
2023-04-02T14:58:49.385Z,101526.41
2023-04-02T15:01:15.733Z,101522.34
2023-04-02T15:03:42.119Z,101530.41
2023-04-02T15:06:08.455Z,101535.41
2023-04-02T15:08:35.006Z,101529.81
2023-04-02T15:11:04.266Z,101527.16
2023-04-02T15:13:32.297Z,101517.81
2023-04-02T15:15:58.670Z,101531.78
2023-04-02T15:18:25.064Z,101530.94
2023-04-02T15:20:51.433Z,101533.75
2023-04-02T15:23:17.774Z,101527.44
2023-04-02T15:25:44.143Z,101528.72
2023-04-02T15:28:10.566Z,101537.59
2023-04-02T15:30:37.252Z,101532.53
2023-04-02T15:33:03.927Z,101538.13
2023-04-02T15:35:30.394Z,101523.31
2023-04-02T15:37:56.868Z,101539.19
2023-04-02T15:40:23.236Z,101535.84
2023-04-02T15:42:49.697Z,101536.53
2023-04-02T15:45:16.296Z,101550.38
2023-04-02T15:47:42.720Z,101551.47
2023-04-02T15:50:09.368Z,101555.81
2023-04-02T15:52:35.745Z,101556.59
2023-04-02T15:55:02.103Z,101558.53
2023-04-02T15:57:28.466Z,101558.75
2023-04-02T15:59:54.812Z,101569.38
2023-04-02T16:02:21.331Z,101562.75
2023-04-02T16:04:47.663Z,101576.44
2023-04-02T16:07:14.040Z,101575.59
2023-04-02T16:09:40.427Z,101576.38
2023-04-02T16:12:06.826Z,101572.44
2023-04-02T16:14:33.200Z,101581.44
2023-04-02T16:17:02.106Z,101578.72
2023-04-02T16:19:30.284Z,101589.63
2023-04-02T16:21:56.648Z,101592.41
2023-04-02T16:24:23.007Z,101591.16
2023-04-02T16:26:50.399Z,101597.00
2023-04-02T16:29:18.382Z,101599.66
2023-04-02T16:31:44.755Z,101602.41
2023-04-02T16:34:11.157Z,101614.56
2023-04-02T16:36:37.557Z,101614.19
2023-04-02T16:39:04.162Z,101618.88
2023-04-02T16:41:30.512Z,101620.09
2023-04-02T16:43:57.056Z,101615.31
2023-04-02T16:46:38.333Z,101619.78
2023-04-02T16:49:05.878Z,101626.34
2023-04-02T16:51:32.716Z,101619.66
2023-04-02T16:54:02.321Z,101626.34
2023-04-02T16:56:29.011Z,101636.81
2023-04-02T16:58:55.349Z,101633.69
2023-04-02T17:01:21.730Z,101640.31
2023-04-02T17:03:48.293Z,101636.06
2023-04-02T17:06:14.988Z,101646.25
2023-04-02T17:08:41.370Z,101652.53
2023-04-02T17:11:07.762Z,101657.44
2023-04-02T17:13:34.165Z,101661.41
2023-04-02T17:16:00.526Z,101663.59
2023-04-02T17:18:26.902Z,101669.44
2023-04-02T17:20:53.244Z,101664.78
2023-04-02T17:23:19.562Z,101673.78
2023-04-02T17:25:45.962Z,101678.03
2023-04-02T17:28:12.287Z,101684.69
2023-04-02T17:30:39.026Z,101687.28
2023-04-02T17:33:05.473Z,101688.56
2023-04-02T17:35:31.860Z,101683.97
2023-04-02T17:37:58.320Z,101695.56
2023-04-02T17:40:24.657Z,101702.97
2023-04-02T17:42:51.025Z,101694.03
2023-04-02T17:45:17.405Z,101705.31
2023-04-02T17:47:43.791Z,101705.25
2023-04-02T17:50:10.178Z,101706.47
2023-04-02T17:52:36.577Z,101704.63
2023-04-02T17:55:02.906Z,101706.16
2023-04-02T17:57:31.424Z,101707.66
2023-04-02T17:59:57.948Z,101711.97
2023-04-02T18:02:24.440Z,101711.19
2023-04-02T18:04:50.803Z,101715.16
2023-04-02T18:07:17.116Z,101719.06
2023-04-02T18:09:43.489Z,101713.56
2023-04-02T18:12:09.848Z,101721.50
2023-04-02T18:14:36.180Z,101717.94
2023-04-02T18:17:02.552Z,101729.16
2023-04-02T18:19:30.562Z,101726.75
2023-04-02T18:21:58.098Z,101739.28
2023-04-02T18:24:24.856Z,101740.44
2023-04-02T18:26:51.292Z,101738.00
2023-04-02T18:29:17.664Z,101750.03
2023-04-02T18:31:44.039Z,101736.06
2023-04-02T18:34:10.656Z,101748.91
2023-04-02T18:36:37.026Z,101752.50
2023-04-02T18:39:03.425Z,101753.22
2023-04-02T18:41:29.742Z,101767.69
2023-04-02T18:43:57.516Z,101771.84
2023-04-02T18:46:24.082Z,101762.53
2023-04-02T18:48:50.476Z,101771.56
2023-04-02T18:51:16.992Z,101762.13
2023-04-02T18:53:43.372Z,101770.41
2023-04-02T18:56:11.893Z,101774.63
2023-04-02T18:58:38.414Z,101776.25
2023-04-02T19:01:04.820Z,101773.22
2023-04-02T19:03:31.251Z,101782.19
2023-04-02T19:05:57.869Z,101775.78
2023-04-02T19:08:24.315Z,101776.25
2023-04-02T19:10:50.696Z,101784.47
2023-04-02T19:13:17.084Z,101777.44
2023-04-02T19:15:43.444Z,101791.41
2023-04-02T19:18:09.847Z,101787.13
2023-04-02T19:20:36.353Z,101802.34
2023-04-02T19:23:02.930Z,101793.38
2023-04-02T19:25:29.332Z,101807.31
2023-04-02T19:27:55.841Z,101807.03
2023-04-02T19:30:22.155Z,101810.13
2023-04-02T19:32:48.545Z,101811.69
2023-04-02T19:35:14.936Z,101810.84
2023-04-02T19:37:41.275Z,101821.75
2023-04-02T19:40:07.678Z,101828.81
2023-04-02T19:42:34.085Z,101819.03
2023-04-02T19:45:00.491Z,101828.00
2023-04-02T19:47:27.113Z,101823.75
2023-04-02T19:49:53.526Z,101839.25
2023-04-02T19:52:19.907Z,101824.91
2023-04-02T19:54:46.256Z,101842.44
2023-04-02T19:57:12.618Z,101842.72
2023-04-02T19:59:39.006Z,101845.88
2023-04-02T20:02:05.375Z,101844.91
2023-04-02T20:04:31.963Z,101842.38
2023-04-02T20:06:58.335Z,101842.50
2023-04-02T20:09:24.697Z,101843.31
2023-04-02T20:11:51.121Z,101847.94
2023-04-02T20:14:17.524Z,101845.97
2023-04-02T20:16:45.382Z,101847.22
2023-04-02T20:19:12.238Z,101852.66
2023-04-02T20:21:38.697Z,101858.47
2023-04-02T20:24:05.275Z,101862.69
2023-04-02T20:26:31.646Z,101870.13
2023-04-02T20:28:57.978Z,101859.56
2023-04-02T20:31:24.401Z,101866.28
2023-04-02T20:33:50.930Z,101865.78
2023-04-02T20:36:17.320Z,101863.16
2023-04-02T20:38:43.663Z,101865.78
2023-04-02T20:41:10.097Z,101877.16
2023-04-02T20:43:36.514Z,101864.22
2023-04-02T20:46:02.957Z,101877.53
2023-04-02T20:48:29.324Z,101882.22
2023-04-02T20:50:55.768Z,101890.72
2023-04-02T20:53:22.154Z,101888.38
2023-04-02T20:55:48.487Z,101888.78
2023-04-02T20:58:14.811Z,101888.81
2023-04-02T21:00:41.191Z,101886.53
2023-04-02T21:03:07.787Z,101895.78
2023-04-02T21:05:34.242Z,101893.06
2023-04-02T21:08:00.682Z,101901.28
2023-04-02T21:10:27.029Z,101898.19
2023-04-02T21:12:53.370Z,101898.91
2023-04-02T21:15:19.827Z,101893.50
2023-04-02T21:17:46.223Z,101902.88
2023-04-02T21:20:12.745Z,101901.28
2023-04-02T21:22:39.178Z,101900.53
2023-04-02T21:25:05.522Z,101904.81
2023-04-02T21:27:31.824Z,101910.59
2023-04-02T21:29:58.163Z,101908.63
2023-04-02T21:32:24.588Z,101916.44
2023-04-02T21:34:50.941Z,101911.00
2023-04-02T21:37:17.282Z,101912.56
2023-04-02T21:39:43.641Z,101909.78
2023-04-02T21:42:10.091Z,101909.34
2023-04-02T21:44:36.453Z,101913.34
2023-04-02T21:47:02.808Z,101905.91
2023-04-02T21:49:29.249Z,101904.00
2023-04-02T21:51:55.838Z,101905.59
2023-04-02T21:54:22.174Z,101902.00
2023-04-02T21:56:48.599Z,101914.88
2023-04-02T21:59:14.964Z,101909.84
2023-04-02T22:01:41.369Z,101913.75
2023-04-02T22:04:07.991Z,101913.75
2023-04-02T22:06:34.393Z,101915.66
2023-04-02T22:09:00.781Z,101913.72
2023-04-02T22:11:27.123Z,101905.94
2023-04-02T22:13:53.584Z,101904.00
2023-04-02T22:16:19.948Z,101906.31
2023-04-02T22:18:46.336Z,101908.72
2023-04-02T22:21:12.710Z,101909.09
2023-04-02T22:23:39.099Z,101910.66
2023-04-02T22:26:05.541Z,101913.03
2023-04-02T22:28:31.915Z,101910.31
2023-04-02T22:30:58.276Z,101913.38
2023-04-02T22:33:24.631Z,101907.16
2023-04-02T22:35:51.058Z,101909.47
2023-04-02T22:38:17.398Z,101908.34
2023-04-02T22:40:43.771Z,101900.91
2023-04-02T22:43:10.096Z,101899.75
2023-04-02T22:45:36.466Z,101901.38
2023-04-02T22:48:02.926Z,101901.72
2023-04-02T22:50:29.247Z,101906.41
2023-04-02T22:52:55.609Z,101909.84
2023-04-02T22:55:21.988Z,101902.91
2023-04-02T22:57:48.385Z,101899.72
2023-04-02T23:00:14.768Z,101898.63
2023-04-02T23:02:41.132Z,101902.50
2023-04-02T23:05:07.488Z,101901.72
2023-04-02T23:07:33.889Z,101895.09
2023-04-02T23:10:00.271Z,101910.69
2023-04-02T23:12:26.588Z,101908.03
2023-04-02T23:14:52.981Z,101907.16
2023-04-02T23:17:19.399Z,101908.75
2023-04-02T23:19:45.771Z,101906.00
2023-04-02T23:22:12.311Z,101906.38
2023-04-02T23:24:38.728Z,101901.72
2023-04-02T23:27:05.049Z,101903.34
2023-04-02T23:29:31.426Z,101893.63
2023-04-02T23:31:58.117Z,101900.19
2023-04-02T23:34:24.460Z,101901.75
2023-04-02T23:36:50.770Z,101898.63
2023-04-02T23:39:17.117Z,101902.13
2023-04-02T23:41:43.457Z,101904.44
2023-04-02T23:44:09.767Z,101902.13
2023-04-02T23:46:36.155Z,101898.59
2023-04-02T23:49:02.580Z,101901.38
2023-04-02T23:51:28.902Z,101897.47
2023-04-02T23:53:55.265Z,101905.25
2023-04-02T23:56:21.620Z,101898.28
2023-04-02T23:58:47.976Z,101902.63
